sensor_id;sensor_type;location;lat;lon;timestamp;P1;durP1;ratioP1;P2;durP2;ratioP2
20179;SDS011;10249;48.900;9.090;2023-05-07T00:00:42;8.20;;;7.90;;
20179;SDS011;10249;48.900;9.090;2023-05-07T00:03:09;8.10;;;7.80;;
20179;SDS011;10249;48.900;9.090;2023-05-07T00:05:40;7.70;;;7.50;;
20179;SDS011;10249;48.900;9.090;2023-05-07T00:08:07;7.70;;;7.50;;
20179;SDS011;10249;48.900;9.090;2023-05-07T00:10:34;7.40;;;7.20;;
20179;SDS011;10249;48.900;9.090;2023-05-07T00:13:01;7.90;;;7.70;;
20179;SDS011;10249;48.900;9.090;2023-05-07T00:15:28;7.70;;;7.50;;
20179;SDS011;10249;48.900;9.090;2023-05-07T00:17:55;7.50;;;7.30;;
20179;SDS011;10249;48.900;9.090;2023-05-07T00:20:24;7.50;;;7.30;;
20179;SDS011;10249;48.900;9.090;2023-05-07T00:22:53;7.10;;;6.90;;
20179;SDS011;10249;48.900;9.090;2023-05-07T00:25:20;7.00;;;6.80;;
20179;SDS011;10249;48.900;9.090;2023-05-07T00:27:47;7.10;;;6.90;;
20179;SDS011;10249;48.900;9.090;2023-05-07T00:30:14;7.00;;;6.80;;
20179;SDS011;10249;48.900;9.090;2023-05-07T00:32:41;7.30;;;7.10;;
20179;SDS011;10249;48.900;9.090;2023-05-07T00:35:10;7.77;;;7.57;;
20179;SDS011;10249;48.900;9.090;2023-05-07T00:37:37;7.63;;;7.43;;
20179;SDS011;10249;48.900;9.090;2023-05-07T00:40:06;7.90;;;7.70;;
20179;SDS011;10249;48.900;9.090;2023-05-07T00:42:34;7.63;;;7.43;;
20179;SDS011;10249;48.900;9.090;2023-05-07T00:45:01;7.60;;;7.40;;
20179;SDS011;10249;48.900;9.090;2023-05-07T00:47:28;7.60;;;7.40;;
20179;SDS011;10249;48.900;9.090;2023-05-07T00:49:56;7.60;;;7.40;;
20179;SDS011;10249;48.900;9.090;2023-05-07T00:52:25;7.00;;;6.80;;
20179;SDS011;10249;48.900;9.090;2023-05-07T00:54:52;6.40;;;6.20;;
20179;SDS011;10249;48.900;9.090;2023-05-07T00:57:21;6.50;;;6.30;;
20179;SDS011;10249;48.900;9.090;2023-05-07T00:59:48;6.10;;;5.90;;
20179;SDS011;10249;48.900;9.090;2023-05-07T01:02:15;6.20;;;6.00;;
20179;SDS011;10249;48.900;9.090;2023-05-07T01:04:43;6.30;;;6.10;;
20179;SDS011;10249;48.900;9.090;2023-05-07T01:07:10;6.50;;;6.30;;
20179;SDS011;10249;48.900;9.090;2023-05-07T01:09:37;6.80;;;6.60;;
20179;SDS011;10249;48.900;9.090;2023-05-07T01:12:05;6.90;;;6.70;;
20179;SDS011;10249;48.900;9.090;2023-05-07T01:14:34;6.70;;;6.50;;
20179;SDS011;10249;48.900;9.090;2023-05-07T01:17:01;6.60;;;6.40;;
20179;SDS011;10249;48.900;9.090;2023-05-07T01:19:28;6.63;;;6.43;;
20179;SDS011;10249;48.900;9.090;2023-05-07T01:21:57;6.93;;;6.73;;
20179;SDS011;10249;48.900;9.090;2023-05-07T01:24:29;7.00;;;6.80;;
20179;SDS011;10249;48.900;9.090;2023-05-07T01:26:56;7.20;;;7.00;;
20179;SDS011;10249;48.900;9.090;2023-05-07T01:29:23;7.60;;;7.40;;
20179;SDS011;10249;48.900;9.090;2023-05-07T01:31:50;7.80;;;7.60;;
20179;SDS011;10249;48.900;9.090;2023-05-07T01:34:18;8.20;;;7.90;;
20179;SDS011;10249;48.900;9.090;2023-05-07T01:36:47;8.27;;;7.97;;
20179;SDS011;10249;48.900;9.090;2023-05-07T01:39:14;8.40;;;8.10;;
20179;SDS011;10249;48.900;9.090;2023-05-07T01:41:43;8.23;;;7.93;;
20179;SDS011;10249;48.900;9.090;2023-05-07T01:44:11;7.80;;;7.60;;
20179;SDS011;10249;48.900;9.090;2023-05-07T01:46:39;7.80;;;7.60;;
20179;SDS011;10249;48.900;9.090;2023-05-07T01:49:06;7.70;;;7.50;;
20179;SDS011;10249;48.900;9.090;2023-05-07T01:51:33;7.60;;;7.40;;
20179;SDS011;10249;48.900;9.090;2023-05-07T01:54:01;7.70;;;7.50;;
20179;SDS011;10249;48.900;9.090;2023-05-07T01:56:28;7.50;;;7.30;;
20179;SDS011;10249;48.900;9.090;2023-05-07T01:58:56;7.40;;;7.20;;
20179;SDS011;10249;48.900;9.090;2023-05-07T02:01:23;7.13;;;6.93;;
20179;SDS011;10249;48.900;9.090;2023-05-07T02:03:51;6.80;;;6.60;;
20179;SDS011;10249;48.900;9.090;2023-05-07T02:06:18;6.80;;;6.60;;
20179;SDS011;10249;48.900;9.090;2023-05-07T02:08:46;6.70;;;6.50;;
20179;SDS011;10249;48.900;9.090;2023-05-07T02:11:13;6.60;;;6.40;;
20179;SDS011;10249;48.900;9.090;2023-05-07T02:13:41;6.50;;;6.30;;
20179;SDS011;10249;48.900;9.090;2023-05-07T02:16:09;6.40;;;6.20;;
20179;SDS011;10249;48.900;9.090;2023-05-07T02:18:38;6.27;;;6.07;;
20179;SDS011;10249;48.900;9.090;2023-05-07T02:21:05;6.13;;;5.93;;
20179;SDS011;10249;48.900;9.090;2023-05-07T02:23:32;6.30;;;6.10;;
20179;SDS011;10249;48.900;9.090;2023-05-07T02:25:59;6.70;;;6.50;;
20179;SDS011;10249;48.900;9.090;2023-05-07T02:28:27;6.70;;;6.50;;
20179;SDS011;10249;48.900;9.090;2023-05-07T02:30:54;6.60;;;6.40;;
20179;SDS011;10249;48.900;9.090;2023-05-07T02:33:24;6.20;;;6.00;;
20179;SDS011;10249;48.900;9.090;2023-05-07T02:35:51;6.10;;;5.90;;
20179;SDS011;10249;48.900;9.090;2023-05-07T02:38:18;6.20;;;6.00;;
20179;SDS011;10249;48.900;9.090;2023-05-07T02:40:45;6.27;;;6.07;;
20179;SDS011;10249;48.900;9.090;2023-05-07T02:43:13;6.40;;;6.20;;
20179;SDS011;10249;48.900;9.090;2023-05-07T02:45:40;6.60;;;6.40;;
20179;SDS011;10249;48.900;9.090;2023-05-07T02:48:08;6.53;;;6.33;;
20179;SDS011;10249;48.900;9.090;2023-05-07T02:50:36;7.00;;;6.80;;
20179;SDS011;10249;48.900;9.090;2023-05-07T02:53:03;6.93;;;6.73;;
20179;SDS011;10249;48.900;9.090;2023-05-07T02:55:30;7.00;;;6.80;;
20179;SDS011;10249;48.900;9.090;2023-05-07T02:57:57;7.30;;;7.10;;
20179;SDS011;10249;48.900;9.090;2023-05-07T03:00:24;7.20;;;7.00;;
20179;SDS011;10249;48.900;9.090;2023-05-07T03:02:51;7.40;;;7.20;;
20179;SDS011;10249;48.900;9.090;2023-05-07T03:05:18;7.30;;;7.10;;
20179;SDS011;10249;48.900;9.090;2023-05-07T03:07:47;7.10;;;6.90;;
20179;SDS011;10249;48.900;9.090;2023-05-07T03:10:14;7.10;;;6.90;;
20179;SDS011;10249;48.900;9.090;2023-05-07T03:12:41;6.97;;;6.77;;
20179;SDS011;10249;48.900;9.090;2023-05-07T03:15:09;6.80;;;6.60;;
20179;SDS011;10249;48.900;9.090;2023-05-07T03:17:36;6.70;;;6.50;;
20179;SDS011;10249;48.900;9.090;2023-05-07T03:20:03;6.57;;;6.37;;
20179;SDS011;10249;48.900;9.090;2023-05-07T03:22:31;6.30;;;6.10;;
20179;SDS011;10249;48.900;9.090;2023-05-07T03:24:59;5.90;;;5.70;;
20179;SDS011;10249;48.900;9.090;2023-05-07T03:27:26;5.90;;;5.70;;
20179;SDS011;10249;48.900;9.090;2023-05-07T03:29:53;6.10;;;5.90;;
20179;SDS011;10249;48.900;9.090;2023-05-07T03:32:20;6.00;;;5.80;;
20179;SDS011;10249;48.900;9.090;2023-05-07T03:34:47;6.20;;;6.00;;
20179;SDS011;10249;48.900;9.090;2023-05-07T03:37:14;6.40;;;6.20;;
20179;SDS011;10249;48.900;9.090;2023-05-07T03:39:41;6.63;;;6.43;;
20179;SDS011;10249;48.900;9.090;2023-05-07T03:42:10;6.97;;;6.77;;
20179;SDS011;10249;48.900;9.090;2023-05-07T03:44:37;7.20;;;7.00;;
20179;SDS011;10249;48.900;9.090;2023-05-07T03:47:04;7.00;;;6.80;;
20179;SDS011;10249;48.900;9.090;2023-05-07T03:49:31;6.80;;;6.60;;
20179;SDS011;10249;48.900;9.090;2023-05-07T03:51:58;6.60;;;6.40;;
20179;SDS011;10249;48.900;9.090;2023-05-07T03:54:25;6.40;;;6.20;;
20179;SDS011;10249;48.900;9.090;2023-05-07T03:56:52;6.60;;;6.40;;
20179;SDS011;10249;48.900;9.090;2023-05-07T03:59:21;6.60;;;6.40;;
20179;SDS011;10249;48.900;9.090;2023-05-07T04:01:48;6.80;;;6.60;;
20179;SDS011;10249;48.900;9.090;2023-05-07T04:04:15;6.73;;;6.53;;
20179;SDS011;10249;48.900;9.090;2023-05-07T04:06:43;6.60;;;6.40;;
20179;SDS011;10249;48.900;9.090;2023-05-07T04:09:10;6.70;;;6.50;;
20179;SDS011;10249;48.900;9.090;2023-05-07T04:11:37;6.60;;;6.40;;
20179;SDS011;10249;48.900;9.090;2023-05-07T04:14:05;6.40;;;6.20;;
20179;SDS011;10249;48.900;9.090;2023-05-07T04:16:34;6.40;;;6.20;;
20179;SDS011;10249;48.900;9.090;2023-05-07T04:19:01;6.50;;;6.30;;
20179;SDS011;10249;48.900;9.090;2023-05-07T04:21:28;6.40;;;6.20;;
20179;SDS011;10249;48.900;9.090;2023-05-07T04:23:55;6.40;;;6.20;;
20179;SDS011;10249;48.900;9.090;2023-05-07T04:26:23;6.60;;;6.40;;
20179;SDS011;10249;48.900;9.090;2023-05-07T04:28:50;6.80;;;6.60;;
20179;SDS011;10249;48.900;9.090;2023-05-07T04:31:17;7.00;;;6.80;;
20179;SDS011;10249;48.900;9.090;2023-05-07T04:33:46;7.10;;;6.90;;
20179;SDS011;10249;48.900;9.090;2023-05-07T04:36:13;7.23;;;7.03;;
20179;SDS011;10249;48.900;9.090;2023-05-07T04:38:40;7.10;;;6.90;;
20179;SDS011;10249;48.900;9.090;2023-05-07T04:41:08;7.00;;;6.80;;
20179;SDS011;10249;48.900;9.090;2023-05-07T04:43:36;6.80;;;6.60;;
20179;SDS011;10249;48.900;9.090;2023-05-07T04:46:03;7.00;;;6.80;;
20179;SDS011;10249;48.900;9.090;2023-05-07T04:48:30;6.70;;;6.50;;
20179;SDS011;10249;48.900;9.090;2023-05-07T04:50:58;6.30;;;6.10;;
20179;SDS011;10249;48.900;9.090;2023-05-07T04:53:25;5.90;;;5.70;;
20179;SDS011;10249;48.900;9.090;2023-05-07T04:55:54;5.80;;;5.60;;
20179;SDS011;10249;48.900;9.090;2023-05-07T04:58:22;5.70;;;5.50;;
20179;SDS011;10249;48.900;9.090;2023-05-07T05:00:49;5.70;;;5.50;;
20179;SDS011;10249;48.900;9.090;2023-05-07T05:03:16;6.00;;;5.80;;
20179;SDS011;10249;48.900;9.090;2023-05-07T05:05:43;6.17;;;5.97;;
20179;SDS011;10249;48.900;9.090;2023-05-07T05:08:12;6.30;;;6.10;;
20179;SDS011;10249;48.900;9.090;2023-05-07T05:10:39;6.40;;;6.20;;
20179;SDS011;10249;48.900;9.090;2023-05-07T05:13:08;6.80;;;6.60;;
20179;SDS011;10249;48.900;9.090;2023-05-07T05:15:37;7.43;;;7.23;;
20179;SDS011;10249;48.900;9.090;2023-05-07T05:18:04;7.80;;;7.60;;
20179;SDS011;10249;48.900;9.090;2023-05-07T05:20:31;7.90;;;7.70;;
20179;SDS011;10249;48.900;9.090;2023-05-07T05:22:58;8.50;;;8.20;;
20179;SDS011;10249;48.900;9.090;2023-05-07T05:25:27;8.40;;;8.10;;
20179;SDS011;10249;48.900;9.090;2023-05-07T05:27:54;8.30;;;8.00;;
20179;SDS011;10249;48.900;9.090;2023-05-07T05:30:21;8.67;;;8.37;;
20179;SDS011;10249;48.900;9.090;2023-05-07T05:32:48;8.60;;;8.30;;
20179;SDS011;10249;48.900;9.090;2023-05-07T05:35:15;8.80;;;8.50;;
20179;SDS011;10249;48.900;9.090;2023-05-07T05:37:42;9.30;;;9.00;;
20179;SDS011;10249;48.900;9.090;2023-05-07T05:40:10;9.40;;;9.10;;
20179;SDS011;10249;48.900;9.090;2023-05-07T05:42:38;9.30;;;9.00;;
20179;SDS011;10249;48.900;9.090;2023-05-07T05:45:06;9.13;;;8.83;;
20179;SDS011;10249;48.900;9.090;2023-05-07T05:47:33;9.33;;;9.03;;
20179;SDS011;10249;48.900;9.090;2023-05-07T05:50:00;9.07;;;8.77;;
20179;SDS011;10249;48.900;9.090;2023-05-07T05:52:27;8.67;;;8.37;;
20179;SDS011;10249;48.900;9.090;2023-05-07T05:54:54;8.00;;;7.80;;
20179;SDS011;10249;48.900;9.090;2023-05-07T05:57:21;8.20;;;7.90;;
20179;SDS011;10249;48.900;9.090;2023-05-07T05:59:50;8.30;;;8.00;;
20179;SDS011;10249;48.900;9.090;2023-05-07T06:02:17;9.00;;;8.70;;
20179;SDS011;10249;48.900;9.090;2023-05-07T06:04:44;8.97;;;8.67;;
20179;SDS011;10249;48.900;9.090;2023-05-07T06:07:11;9.40;;;9.10;;
20179;SDS011;10249;48.900;9.090;2023-05-07T06:09:38;9.57;;;9.27;;
20179;SDS011;10249;48.900;9.090;2023-05-07T06:12:05;10.00;;;9.70;;
20179;SDS011;10249;48.900;9.090;2023-05-07T06:14:32;9.87;;;9.57;;
20179;SDS011;10249;48.900;9.090;2023-05-07T06:17:01;10.50;;;10.10;;
20179;SDS011;10249;48.900;9.090;2023-05-07T06:19:28;10.87;;;10.47;;
20179;SDS011;10249;48.900;9.090;2023-05-07T06:21:55;10.60;;;10.20;;
20179;SDS011;10249;48.900;9.090;2023-05-07T06:24:22;11.07;;;10.67;;
20179;SDS011;10249;48.900;9.090;2023-05-07T06:26:49;11.00;;;10.60;;
20179;SDS011;10249;48.900;9.090;2023-05-07T06:29:16;11.30;;;10.90;;
20179;SDS011;10249;48.900;9.090;2023-05-07T06:31:43;11.30;;;10.90;;
20179;SDS011;10249;48.900;9.090;2023-05-07T06:34:12;11.60;;;11.20;;
20179;SDS011;10249;48.900;9.090;2023-05-07T06:36:40;11.50;;;11.10;;
20179;SDS011;10249;48.900;9.090;2023-05-07T06:39:07;12.00;;;11.60;;
20179;SDS011;10249;48.900;9.090;2023-05-07T06:41:34;12.00;;;11.60;;
20179;SDS011;10249;48.900;9.090;2023-05-07T06:44:01;11.60;;;11.20;;
20179;SDS011;10249;48.900;9.090;2023-05-07T06:46:28;11.40;;;11.00;;
20179;SDS011;10249;48.900;9.090;2023-05-07T06:48:55;11.50;;;11.10;;
20179;SDS011;10249;48.900;9.090;2023-05-07T06:51:24;11.70;;;11.30;;
20179;SDS011;10249;48.900;9.090;2023-05-07T06:53:51;11.57;;;11.17;;
20179;SDS011;10249;48.900;9.090;2023-05-07T06:56:19;11.60;;;11.20;;
20179;SDS011;10249;48.900;9.090;2023-05-07T06:58:46;11.80;;;11.40;;
20179;SDS011;10249;48.900;9.090;2023-05-07T07:01:13;12.00;;;11.60;;
20179;SDS011;10249;48.900;9.090;2023-05-07T07:03:40;11.90;;;11.50;;
20179;SDS011;10249;48.900;9.090;2023-05-07T07:06:07;11.83;;;11.43;;
20179;SDS011;10249;48.900;9.090;2023-05-07T07:08:35;12.00;;;11.60;;
20179;SDS011;10249;48.900;9.090;2023-05-07T07:11:03;12.63;;;12.13;;
20179;SDS011;10249;48.900;9.090;2023-05-07T07:13:30;13.10;;;12.60;;
20179;SDS011;10249;48.900;9.090;2023-05-07T07:15:58;12.80;;;12.30;;
20179;SDS011;10249;48.900;9.090;2023-05-07T07:18:26;12.70;;;12.20;;
20179;SDS011;10249;48.900;9.090;2023-05-07T07:20:53;13.07;;;12.57;;
20179;SDS011;10249;48.900;9.090;2023-05-07T07:23:20;13.00;;;12.50;;
20179;SDS011;10249;48.900;9.090;2023-05-07T07:25:48;13.03;;;12.53;;
20179;SDS011;10249;48.900;9.090;2023-05-07T07:28:15;12.73;;;12.23;;
20179;SDS011;10249;48.900;9.090;2023-05-07T07:30:42;12.80;;;12.30;;
20179;SDS011;10249;48.900;9.090;2023-05-07T07:33:10;12.83;;;12.33;;
20179;SDS011;10249;48.900;9.090;2023-05-07T07:35:37;12.77;;;12.27;;
20179;SDS011;10249;48.900;9.090;2023-05-07T07:38:04;13.13;;;12.63;;
20179;SDS011;10249;48.900;9.090;2023-05-07T07:40:31;13.10;;;12.60;;
20179;SDS011;10249;48.900;9.090;2023-05-07T07:42:59;45.57;;;43.97;;
20179;SDS011;10249;48.900;9.090;2023-05-07T07:45:26;45.13;;;43.53;;
20179;SDS011;10249;48.900;9.090;2023-05-07T07:47:54;42.70;;;41.20;;
20179;SDS011;10249;48.900;9.090;2023-05-07T07:50:21;44.40;;;42.80;;
20179;SDS011;10249;48.900;9.090;2023-05-07T07:52:48;43.77;;;42.20;;
20179;SDS011;10249;48.900;9.090;2023-05-07T07:55:15;43.30;;;41.80;;
20179;SDS011;10249;48.900;9.090;2023-05-07T07:57:46;43.20;;;41.70;;
20179;SDS011;10249;48.900;9.090;2023-05-07T08:00:15;42.13;;;40.63;;
20179;SDS011;10249;48.900;9.090;2023-05-07T08:02:43;42.67;;;41.17;;
20179;SDS011;10249;48.900;9.090;2023-05-07T08:05:10;42.70;;;41.20;;
20179;SDS011;10249;48.900;9.090;2023-05-07T08:07:37;43.87;;;42.37;;
20179;SDS011;10249;48.900;9.090;2023-05-07T08:10:04;43.60;;;42.10;;
20179;SDS011;10249;48.900;9.090;2023-05-07T08:12:31;43.73;;;42.23;;
20179;SDS011;10249;48.900;9.090;2023-05-07T08:14:58;43.70;;;42.20;;
20179;SDS011;10249;48.900;9.090;2023-05-07T08:17:28;42.83;;;41.33;;
20179;SDS011;10249;48.900;9.090;2023-05-07T08:19:55;43.53;;;42.03;;
20179;SDS011;10249;48.900;9.090;2023-05-07T08:22:22;42.67;;;41.17;;
20179;SDS011;10249;48.900;9.090;2023-05-07T08:24:49;42.13;;;40.63;;
20179;SDS011;10249;48.900;9.090;2023-05-07T08:27:16;41.93;;;40.43;;
20179;SDS011;10249;48.900;9.090;2023-05-07T08:29:43;43.20;;;41.70;;
20179;SDS011;10249;48.900;9.090;2023-05-07T08:32:13;41.50;;;40.00;;
20179;SDS011;10249;48.900;9.090;2023-05-07T08:34:41;42.47;;;40.97;;
20179;SDS011;10249;48.900;9.090;2023-05-07T08:37:08;41.07;;;39.67;;
20179;SDS011;10249;48.900;9.090;2023-05-07T08:39:35;42.13;;;40.63;;
20179;SDS011;10249;48.900;9.090;2023-05-07T08:42:03;42.87;;;41.37;;
20179;SDS011;10249;48.900;9.090;2023-05-07T08:44:32;41.33;;;39.83;;
20179;SDS011;10249;48.900;9.090;2023-05-07T08:47:00;43.83;;;42.33;;
20179;SDS011;10249;48.900;9.090;2023-05-07T08:49:27;42.33;;;40.83;;
20179;SDS011;10249;48.900;9.090;2023-05-07T08:51:56;42.00;;;40.50;;
20179;SDS011;10249;48.900;9.090;2023-05-07T08:54:23;41.63;;;40.13;;
20179;SDS011;10249;48.900;9.090;2023-05-07T08:56:51;42.30;;;40.80;;
20179;SDS011;10249;48.900;9.090;2023-05-07T08:59:18;40.60;;;39.20;;
20179;SDS011;10249;48.900;9.090;2023-05-07T09:01:45;42.00;;;40.50;;
20179;SDS011;10249;48.900;9.090;2023-05-07T09:04:12;43.13;;;41.63;;
20179;SDS011;10249;48.900;9.090;2023-05-07T09:06:40;43.63;;;42.03;;
20179;SDS011;10249;48.900;9.090;2023-05-07T09:09:08;41.33;;;39.83;;
20179;SDS011;10249;48.900;9.090;2023-05-07T09:11:35;40.53;;;39.13;;
20179;SDS011;10249;48.900;9.090;2023-05-07T09:14:02;41.17;;;39.73;;
20179;SDS011;10249;48.900;9.090;2023-05-07T09:16:29;39.87;;;38.47;;
20179;SDS011;10249;48.900;9.090;2023-05-07T09:18:57;39.93;;;38.53;;
20179;SDS011;10249;48.900;9.090;2023-05-07T09:21:24;40.50;;;39.10;;
20179;SDS011;10249;48.900;9.090;2023-05-07T09:23:52;40.87;;;39.43;;
20179;SDS011;10249;48.900;9.090;2023-05-07T09:26:22;41.50;;;40.00;;
20179;SDS011;10249;48.900;9.090;2023-05-07T09:28:49;40.27;;;38.87;;
20179;SDS011;10249;48.900;9.090;2023-05-07T09:31:16;39.30;;;37.90;;
20179;SDS011;10249;48.900;9.090;2023-05-07T09:33:43;40.13;;;38.73;;
20179;SDS011;10249;48.900;9.090;2023-05-07T09:36:11;40.33;;;38.93;;
20179;SDS011;10249;48.900;9.090;2023-05-07T09:38:38;40.45;;;39.03;;
20179;SDS011;10249;48.900;9.090;2023-05-07T09:41:07;40.30;;;38.90;;
20179;SDS011;10249;48.900;9.090;2023-05-07T09:43:37;40.73;;;39.23;;
20179;SDS011;10249;48.900;9.090;2023-05-07T09:46:06;40.47;;;39.07;;
20179;SDS011;10249;48.900;9.090;2023-05-07T09:48:36;40.10;;;38.70;;
20179;SDS011;10249;48.900;9.090;2023-05-07T09:51:06;41.00;;;39.50;;
20179;SDS011;10249;48.900;9.090;2023-05-07T09:53:36;40.93;;;39.43;;
20179;SDS011;10249;48.900;9.090;2023-05-07T09:56:04;40.50;;;39.00;;
20179;SDS011;10249;48.900;9.090;2023-05-07T09:58:31;40.27;;;38.77;;
20179;SDS011;10249;48.900;9.090;2023-05-07T10:01:00;40.28;;;38.78;;
20179;SDS011;10249;48.900;9.090;2023-05-07T10:03:29;40.35;;;38.85;;
20179;SDS011;10249;48.900;9.090;2023-05-07T10:05:57;41.55;;;40.05;;
20179;SDS011;10249;48.900;9.090;2023-05-07T10:08:25;41.33;;;39.83;;
20179;SDS011;10249;48.900;9.090;2023-05-07T10:10:52;41.08;;;39.58;;
20179;SDS011;10249;48.900;9.090;2023-05-07T10:13:19;40.53;;;39.03;;
20179;SDS011;10249;48.900;9.090;2023-05-07T10:15:46;40.53;;;39.03;;
20179;SDS011;10249;48.900;9.090;2023-05-07T10:18:15;40.72;;;39.22;;
20179;SDS011;10249;48.900;9.090;2023-05-07T10:20:43;40.50;;;39.00;;
20179;SDS011;10249;48.900;9.090;2023-05-07T10:23:13;14.13;;;13.52;;
20179;SDS011;10249;48.900;9.090;2023-05-07T10:25:40;14.10;;;13.50;;
20179;SDS011;10249;48.900;9.090;2023-05-07T10:28:07;14.25;;;13.65;;
20179;SDS011;10249;48.900;9.090;2023-05-07T10:30:38;13.90;;;13.30;;
20179;SDS011;10249;48.900;9.090;2023-05-07T10:33:07;14.25;;;13.65;;
20179;SDS011;10249;48.900;9.090;2023-05-07T10:35:37;14.90;;;14.30;;
20179;SDS011;10249;48.900;9.090;2023-05-07T10:38:05;14.55;;;13.95;;
20179;SDS011;10249;48.900;9.090;2023-05-07T10:40:33;14.30;;;13.70;;
20179;SDS011;10249;48.900;9.090;2023-05-07T10:43:00;13.77;;;13.18;;
20179;SDS011;10249;48.900;9.090;2023-05-07T10:45:29;13.68;;;13.07;;
20179;SDS011;10249;48.900;9.090;2023-05-07T10:48:06;14.50;;;13.90;;
20179;SDS011;10249;48.900;9.090;2023-05-07T10:50:33;14.50;;;13.90;;
20179;SDS011;10249;48.900;9.090;2023-05-07T10:55:48;15.10;;;14.40;;
20179;SDS011;10249;48.900;9.090;2023-05-07T10:58:25;14.80;;;14.10;;
20179;SDS011;10249;48.900;9.090;2023-05-07T11:00:55;14.25;;;13.65;;
20179;SDS011;10249;48.900;9.090;2023-05-07T11:03:24;14.40;;;13.80;;
20179;SDS011;10249;48.900;9.090;2023-05-07T11:06:08;14.60;;;14.00;;
20179;SDS011;10249;48.900;9.090;2023-05-07T11:08:52;14.30;;;13.70;;
20179;SDS011;10249;48.900;9.090;2023-05-07T11:11:20;14.23;;;13.63;;
20179;SDS011;10249;48.900;9.090;2023-05-07T11:14:07;14.00;;;13.40;;
20179;SDS011;10249;48.900;9.090;2023-05-07T11:16:35;14.10;;;13.50;;
20179;SDS011;10249;48.900;9.090;2023-05-07T11:19:03;14.18;;;13.57;;
20179;SDS011;10249;48.900;9.090;2023-05-07T11:21:33;14.10;;;13.50;;
20179;SDS011;10249;48.900;9.090;2023-05-07T11:24:01;14.15;;;13.55;;
20179;SDS011;10249;48.900;9.090;2023-05-07T11:26:30;13.90;;;13.30;;
20179;SDS011;10249;48.900;9.090;2023-05-07T11:28:58;13.98;;;13.38;;
20179;SDS011;10249;48.900;9.090;2023-05-07T11:31:26;13.85;;;13.25;;
20179;SDS011;10249;48.900;9.090;2023-05-07T11:33:54;13.90;;;13.30;;
20179;SDS011;10249;48.900;9.090;2023-05-07T11:36:22;13.93;;;13.32;;
20179;SDS011;10249;48.900;9.090;2023-05-07T11:38:50;14.10;;;13.50;;
20179;SDS011;10249;48.900;9.090;2023-05-07T11:41:17;13.98;;;13.38;;
20179;SDS011;10249;48.900;9.090;2023-05-07T11:43:58;13.90;;;13.30;;
20179;SDS011;10249;48.900;9.090;2023-05-07T11:46:26;14.10;;;13.50;;
20179;SDS011;10249;48.900;9.090;2023-05-07T11:48:53;13.80;;;13.20;;
20179;SDS011;10249;48.900;9.090;2023-05-07T11:51:21;13.70;;;13.10;;
20179;SDS011;10249;48.900;9.090;2023-05-07T11:53:48;14.07;;;13.47;;
20179;SDS011;10249;48.900;9.090;2023-05-07T11:56:16;14.20;;;13.60;;
20179;SDS011;10249;48.900;9.090;2023-05-07T11:58:44;14.10;;;13.50;;
20179;SDS011;10249;48.900;9.090;2023-05-07T12:01:13;14.07;;;13.48;;
20179;SDS011;10249;48.900;9.090;2023-05-07T12:03:41;14.20;;;13.60;;
20179;SDS011;10249;48.900;9.090;2023-05-07T12:06:09;14.02;;;13.43;;
20179;SDS011;10249;48.900;9.090;2023-05-07T12:08:36;14.27;;;13.68;;
20179;SDS011;10249;48.900;9.090;2023-05-07T12:11:04;14.10;;;13.50;;
20179;SDS011;10249;48.900;9.090;2023-05-07T12:13:33;14.13;;;13.52;;
20179;SDS011;10249;48.900;9.090;2023-05-07T12:16:00;14.30;;;13.70;;
20179;SDS011;10249;48.900;9.090;2023-05-07T12:18:30;14.60;;;14.00;;
20179;SDS011;10249;48.900;9.090;2023-05-07T12:20:57;14.10;;;13.50;;
20179;SDS011;10249;48.900;9.090;2023-05-07T12:23:25;14.57;;;13.98;;
20179;SDS011;10249;48.900;9.090;2023-05-07T12:25:53;13.87;;;13.27;;
20179;SDS011;10249;48.900;9.090;2023-05-07T12:28:20;14.03;;;13.43;;
20179;SDS011;10249;48.900;9.090;2023-05-07T12:30:48;13.88;;;13.27;;
20179;SDS011;10249;48.900;9.090;2023-05-07T12:33:16;13.85;;;13.25;;
20179;SDS011;10249;48.900;9.090;2023-05-07T12:35:45;13.65;;;13.05;;
20179;SDS011;10249;48.900;9.090;2023-05-07T12:38:15;13.90;;;13.30;;
20179;SDS011;10249;48.900;9.090;2023-05-07T12:40:43;14.05;;;13.45;;
20179;SDS011;10249;48.900;9.090;2023-05-07T12:43:15;14.05;;;13.45;;
20179;SDS011;10249;48.900;9.090;2023-05-07T12:45:42;13.98;;;13.38;;
20179;SDS011;10249;48.900;9.090;2023-05-07T12:48:10;14.20;;;13.60;;
20179;SDS011;10249;48.900;9.090;2023-05-07T12:50:37;13.75;;;13.15;;
20179;SDS011;10249;48.900;9.090;2023-05-07T12:53:06;13.47;;;12.97;;
20179;SDS011;10249;48.900;9.090;2023-05-07T12:55:40;13.40;;;12.90;;
20179;SDS011;10249;48.900;9.090;2023-05-07T12:58:07;13.30;;;12.80;;
20179;SDS011;10249;48.900;9.090;2023-05-07T13:00:35;13.07;;;12.57;;
20179;SDS011;10249;48.900;9.090;2023-05-07T13:03:03;12.60;;;12.10;;
20179;SDS011;10249;48.900;9.090;2023-05-07T13:05:30;12.50;;;12.00;;
20179;SDS011;10249;48.900;9.090;2023-05-07T13:07:57;11.50;;;11.10;;
20179;SDS011;10249;48.900;9.090;2023-05-07T13:10:26;11.60;;;11.20;;
20179;SDS011;10249;48.900;9.090;2023-05-07T13:12:53;11.83;;;11.43;;
20179;SDS011;10249;48.900;9.090;2023-05-07T13:15:20;12.60;;;12.10;;
20179;SDS011;10249;48.900;9.090;2023-05-07T13:17:48;12.70;;;12.20;;
20179;SDS011;10249;48.900;9.090;2023-05-07T13:20:15;13.00;;;12.50;;
20179;SDS011;10249;48.900;9.090;2023-05-07T13:22:42;12.97;;;12.47;;
20179;SDS011;10249;48.900;9.090;2023-05-07T13:25:09;13.30;;;12.80;;
20179;SDS011;10249;48.900;9.090;2023-05-07T13:27:38;13.30;;;12.80;;
20179;SDS011;10249;48.900;9.090;2023-05-07T13:30:05;12.87;;;12.37;;
20179;SDS011;10249;48.900;9.090;2023-05-07T13:32:32;13.10;;;12.60;;
20179;SDS011;10249;48.900;9.090;2023-05-07T13:35:00;12.90;;;12.40;;
20179;SDS011;10249;48.900;9.090;2023-05-07T13:37:27;13.20;;;12.70;;
20179;SDS011;10249;48.900;9.090;2023-05-07T13:39:54;13.70;;;13.10;;
20179;SDS011;10249;48.900;9.090;2023-05-07T13:42:21;12.93;;;12.43;;
20179;SDS011;10249;48.900;9.090;2023-05-07T13:44:50;12.80;;;12.30;;
20179;SDS011;10249;48.900;9.090;2023-05-07T13:47:17;11.90;;;11.50;;
20179;SDS011;10249;48.900;9.090;2023-05-07T13:49:44;11.40;;;11.00;;
20179;SDS011;10249;48.900;9.090;2023-05-07T13:52:11;11.00;;;10.60;;
20179;SDS011;10249;48.900;9.090;2023-05-07T13:54:38;10.27;;;9.87;;
20179;SDS011;10249;48.900;9.090;2023-05-07T13:57:05;10.70;;;10.30;;
20179;SDS011;10249;48.900;9.090;2023-05-07T13:59:32;9.50;;;9.20;;
20179;SDS011;10249;48.900;9.090;2023-05-07T14:02:01;9.37;;;9.07;;
20179;SDS011;10249;48.900;9.090;2023-05-07T14:04:28;9.47;;;9.17;;
20179;SDS011;10249;48.900;9.090;2023-05-07T14:06:55;9.20;;;8.90;;
20179;SDS011;10249;48.900;9.090;2023-05-07T14:09:22;10.10;;;9.80;;
20179;SDS011;10249;48.900;9.090;2023-05-07T14:11:49;10.67;;;10.27;;
20179;SDS011;10249;48.900;9.090;2023-05-07T14:14:16;10.30;;;9.90;;
20179;SDS011;10249;48.900;9.090;2023-05-07T14:16:43;10.77;;;10.37;;
20179;SDS011;10249;48.900;9.090;2023-05-07T14:19:12;11.00;;;10.60;;
20179;SDS011;10249;48.900;9.090;2023-05-07T14:21:39;10.83;;;10.43;;
20179;SDS011;10249;48.900;9.090;2023-05-07T14:24:06;10.80;;;10.40;;
20179;SDS011;10249;48.900;9.090;2023-05-07T14:26:33;10.10;;;9.80;;
20179;SDS011;10249;48.900;9.090;2023-05-07T14:29:00;9.80;;;9.50;;
20179;SDS011;10249;48.900;9.090;2023-05-07T14:31:28;9.30;;;9.00;;
20179;SDS011;10249;48.900;9.090;2023-05-07T14:33:55;8.43;;;8.13;;
20179;SDS011;10249;48.900;9.090;2023-05-07T14:36:25;7.90;;;7.70;;
20179;SDS011;10249;48.900;9.090;2023-05-07T14:38:52;7.80;;;7.60;;